Time;durP1;ratioP1;P1;durP2;ratioP2;P2;SDS_P1;SDS_P2;PMS_P1;PMS_P2;Temp;Humidity;BMP_temperature;BMP_pressure;BME280_temperature;BME280_humidity;BME280_pressure;Samples;Min_cycle;Max_cycle;Signal;HPM_P1;HPM_P2
2023/06/08 00:01:43;;;;;;;8.73;8.02;;;15.40;99.90;;;;;;4998645;28;20061;-59
2023/06/08 00:04:09;;;;;;;9.07;8.02;;;15.30;99.90;;;;;;4996229;28;20026;-58
2023/06/08 00:06:37;;;;;;;8.73;8.02;;;15.20;99.90;;;;;;4990654;28;20133;-59
2023/06/08 00:09:06;;;;;;;9.27;8.10;;;15.20;99.90;;;;;;4991174;28;20030;-59
2023/06/08 00:11:32;;;;;;;8.77;8.07;;;15.10;99.90;;;;;;4998209;28;20026;-59
2023/06/08 00:13:59;;;;;;;8.07;7.47;;;14.90;99.90;;;;;;4995349;28;20125;-59
2023/06/08 00:16:25;;;;;;;9.20;8.13;;;14.80;99.90;;;;;;4996095;28;20034;-59
2023/06/08 00:18:56;;;;;;;9.45;8.75;;;14.70;99.90;;;;;;4996427;28;20037;-58
2023/06/08 00:21:29;;;;;;;9.32;8.73;;;14.70;99.90;;;;;;4993258;28;20053;-59
2023/06/08 00:23:55;;;;;;;9.60;8.80;;;14.60;99.90;;;;;;4996723;28;20038;-59
2023/06/08 00:26:22;;;;;;;9.93;9.02;;;14.60;99.90;;;;;;4993840;28;20574;-59
2023/06/08 00:28:48;;;;;;;10.13;9.27;;;14.50;99.90;;;;;;4996466;28;20045;-58
2023/06/08 00:31:17;;;;;;;9.25;8.48;;;14.40;99.90;;;;;;5000733;28;20030;-59
2023/06/08 00:33:43;;;;;;;10.45;9.55;;;14.30;99.90;;;;;;4998052;28;20026;-60
2023/06/08 00:36:09;;;;;;;9.80;9.02;;;14.30;99.90;;;;;;4997355;28;20685;-59
2023/06/08 00:38:35;;;;;;;10.60;9.80;;;14.30;99.90;;;;;;4999387;28;20030;-60
2023/06/08 00:41:01;;;;;;;9.10;8.30;;;14.30;99.90;;;;;;5000900;28;20034;-55
2023/06/08 00:43:27;;;;;;;9.70;8.98;;;14.40;99.90;;;;;;5002011;28;20029;-59
2023/06/08 00:45:55;;;;;;;9.48;8.80;;;14.40;99.90;;;;;;5000765;28;20402;-59
2023/06/08 00:48:21;;;;;;;9.57;8.88;;;14.30;99.90;;;;;;4999036;28;20026;-59
2023/06/08 00:50:47;;;;;;;11.88;8.65;;;14.20;99.90;;;;;;4999718;28;20108;-59
2023/06/08 00:53:14;;;;;;;11.07;10.25;;;14.10;99.90;;;;;;4999344;28;20030;-59
2023/06/08 00:55:43;;;;;;;10.07;9.27;;;14.10;99.90;;;;;;4998926;28;20701;-59
2023/06/08 00:58:13;;;;;;;10.20;9.32;;;14.00;99.90;;;;;;4998027;28;20177;-59
2023/06/08 01:00:42;;;;;;;9.90;9.18;;;13.90;99.90;;;;;;4995689;28;20034;-58
2023/06/08 01:03:07;;;;;;;10.50;9.70;;;13.90;99.90;;;;;;4998091;28;20201;-59
2023/06/08 01:05:33;;;;;;;10.75;9.95;;;13.90;99.90;;;;;;4997366;28;20569;-58
2023/06/08 01:08:17;;;;;;;10.05;9.05;;;14.00;99.90;;;;;;4998914;28;20023;-59
2023/06/08 01:10:48;;;;;;;9.85;8.88;;;14.00;99.90;;;;;;4998399;28;20026;-58
2023/06/08 01:13:27;;;;;;;9.75;9.05;;;13.90;99.90;;;;;;5002583;28;20025;-59
2023/06/08 01:16:03;;;;;;;10.63;9.68;;;13.80;99.90;;;;;;4999665;28;20376;-60
2023/06/08 01:18:38;;;;;;;10.18;9.38;;;13.70;99.90;;;;;;4999312;28;20030;-59
2023/06/08 01:21:24;;;;;;;10.00;9.25;;;13.70;99.90;;;;;;5001515;28;20081;-58
2023/06/08 01:24:12;;;;;;;9.80;9.00;;;13.60;99.90;;;;;;4998764;28;20026;-57
2023/06/08 01:26:43;;;;;;;10.32;9.52;;;13.60;99.90;;;;;;5002203;28;20034;-58
2023/06/08 01:29:10;;;;;;;10.10;9.30;;;13.60;99.90;;;;;;5000507;28;20486;-58
2023/06/08 01:31:37;;;;;;;10.23;9.20;;;13.60;99.90;;;;;;4999193;28;20032;-58
2023/06/08 01:34:05;;;;;;;9.90;9.23;;;13.60;99.90;;;;;;5001501;28;20049;-58
2023/06/08 01:36:36;;;;;;;9.95;9.15;;;13.60;99.90;;;;;;4999460;28;20033;-57
2023/06/08 01:39:25;;;;;;;11.63;9.75;;;13.60;99.90;;;;;;4999589;28;20034;-58
2023/06/08 01:41:55;;;;;;;10.98;10.18;;;13.50;99.90;;;;;;5000984;28;20018;-58
2023/06/08 01:44:23;;;;;;;11.18;10.27;;;13.50;99.90;;;;;;4999270;28;20057;-58
2023/06/08 01:46:55;;;;;;;11.57;10.77;;;13.40;99.90;;;;;;4994914;28;20023;-58
2023/06/08 01:49:22;;;;;;;12.45;11.20;;;13.50;99.90;;;;;;4998204;28;20042;-59
2023/06/08 01:51:48;;;;;;;12.25;9.80;;;13.60;99.90;;;;;;4996619;28;20493;-58
2023/06/08 01:54:15;;;;;;;10.80;9.77;;;13.60;99.90;;;;;;4999308;28;20076;-58
2023/06/08 01:56:41;;;;;;;10.48;9.68;;;13.50;99.90;;;;;;4996401;28;20393;-58
2023/06/08 01:59:06;;;;;;;10.60;9.63;;;13.40;99.90;;;;;;5000213;28;20022;-58
2023/06/08 02:01:32;;;;;;;10.93;10.13;;;13.30;99.90;;;;;;5000115;28;20549;-59
2023/06/08 02:03:57;;;;;;;11.15;10.25;;;13.30;99.90;;;;;;4999820;28;20382;-58
2023/06/08 02:06:23;;;;;;;10.07;9.07;;;13.20;99.90;;;;;;4998557;28;20087;-58
2023/06/08 02:08:49;;;;;;;10.10;9.20;;;13.10;99.90;;;;;;5001294;28;20105;-58
2023/06/08 02:11:14;;;;;;;9.75;9.05;;;13.00;99.90;;;;;;4999047;28;20018;-59
2023/06/08 02:13:41;;;;;;;10.07;9.18;;;12.90;99.90;;;;;;4994213;28;20026;-58
2023/06/08 02:16:07;;;;;;;10.48;9.75;;;12.80;99.90;;;;;;4995364;28;20111;-59
2023/06/08 02:18:35;;;;;;;10.73;9.93;;;12.80;99.90;;;;;;4999589;28;20038;-58
2023/06/08 02:21:02;;;;;;;10.40;9.65;;;12.70;99.90;;;;;;5000678;28;20026;-57
2023/06/08 02:23:28;;;;;;;11.00;10.30;;;12.70;99.90;;;;;;5000151;28;20037;-58
2023/06/08 02:25:54;;;;;;;12.43;11.43;;;12.70;99.90;;;;;;4994948;28;20058;-59
2023/06/08 02:28:20;;;;;;;11.40;10.35;;;12.80;99.90;;;;;;4997989;28;20398;-58
2023/06/08 02:30:46;;;;;;;10.90;10.10;;;12.80;99.90;;;;;;4994110;28;20057;-59
2023/06/08 02:33:13;;;;;;;11.85;11.02;;;12.80;99.90;;;;;;5000189;28;20038;-58
2023/06/08 02:35:39;;;;;;;13.00;11.60;;;12.80;99.90;;;;;;4999208;28;20709;-58
2023/06/08 02:38:05;;;;;;;13.18;11.40;;;12.80;99.90;;;;;;4997372;28;20041;-58
2023/06/08 02:40:31;;;;;;;12.43;11.23;;;12.70;99.90;;;;;;4995689;28;20023;-57
2023/06/08 02:42:57;;;;;;;13.93;12.93;;;12.70;99.90;;;;;;4997938;28;20053;-58
2023/06/08 02:45:23;;;;;;;11.60;10.75;;;12.80;99.90;;;;;;4997486;28;20026;-58
2023/06/08 02:47:49;;;;;;;10.27;9.48;;;12.80;99.90;;;;;;4997427;28;20624;-58
2023/06/08 02:50:14;;;;;;;11.90;10.93;;;12.80;99.90;;;;;;4997415;28;20050;-58
2023/06/08 02:52:40;;;;;;;12.32;11.43;;;12.70;99.90;;;;;;4996146;28;20037;-58
2023/06/08 02:55:07;;;;;;;12.77;11.77;;;12.80;99.90;;;;;;4998212;28;20049;-58
2023/06/08 02:57:33;;;;;;;12.23;11.23;;;12.80;99.90;;;;;;4994916;28;20038;-59
2023/06/08 02:59:59;;;;;;;11.50;10.48;;;12.80;99.90;;;;;;4999264;28;20540;-59
2023/06/08 03:02:27;;;;;;;13.13;12.07;;;12.80;99.90;;;;;;4999530;28;20132;-60
2023/06/08 03:04:53;;;;;;;11.98;11.07;;;12.80;99.90;;;;;;4997266;28;20607;-58
2023/06/08 03:07:19;;;;;;;11.30;10.40;;;12.80;99.90;;;;;;5001210;28;20048;-57
2023/06/08 03:09:45;;;;;;;11.75;10.90;;;12.70;99.90;;;;;;4998198;28;20129;-57
2023/06/08 03:12:12;;;;;;;10.65;9.55;;;12.60;99.90;;;;;;4998418;28;20128;-57
2023/06/08 03:14:40;;;;;;;10.25;9.55;;;12.50;99.90;;;;;;4997684;28;20030;-58
2023/06/08 03:17:07;;;;;;;10.88;9.80;;;12.40;99.90;;;;;;4994391;28;20038;-58
2023/06/08 03:19:33;;;;;;;10.43;9.73;;;12.30;99.90;;;;;;4999333;28;20025;-58
2023/06/08 03:22:04;;;;;;;10.48;9.68;;;12.20;99.90;;;;;;4997128;28;20495;-59
2023/06/08 03:24:31;;;;;;;11.40;10.60;;;12.20;99.90;;;;;;4992415;28;20061;-58
2023/06/08 03:26:58;;;;;;;11.10;10.25;;;12.10;99.90;;;;;;4998409;28;20030;-58
2023/06/08 03:29:25;;;;;;;12.00;10.60;;;12.10;99.90;;;;;;4997330;28;20510;-58
2023/06/08 03:31:51;;;;;;;11.30;10.18;;;12.00;99.90;;;;;;4993810;28;20034;-59
2023/06/08 03:34:17;;;;;;;11.25;10.32;;;12.00;99.90;;;;;;4994392;28;20042;-59
2023/06/08 03:36:44;;;;;;;11.82;10.95;;;11.90;99.90;;;;;;4996643;28;20035;-59
2023/06/08 03:39:10;;;;;;;12.75;11.85;;;12.00;99.90;;;;;;4996753;28;20141;-57
2023/06/08 03:41:35;;;;;;;12.20;11.20;;;12.00;99.90;;;;;;4998253;28;20011;-58
2023/06/08 03:44:01;;;;;;;12.80;11.68;;;12.00;99.90;;;;;;4997451;28;20037;-58
2023/06/08 03:46:27;;;;;;;11.95;11.05;;;12.00;99.90;;;;;;4995926;28;20087;-58
2023/06/08 03:48:53;;;;;;;11.48;10.43;;;12.00;99.90;;;;;;4998353;28;20033;-58
2023/06/08 03:51:23;;;;;;;12.60;11.57;;;12.00;99.90;;;;;;4995746;28;20105;-59
2023/06/08 03:53:50;;;;;;;12.82;11.93;;;12.00;99.90;;;;;;4998126;28;20018;-59
2023/06/08 03:56:15;;;;;;;12.18;11.18;;;12.00;99.90;;;;;;4994934;28;20065;-59
2023/06/08 03:58:41;;;;;;;12.57;11.43;;;12.00;99.90;;;;;;4999520;28;20064;-59
2023/06/08 04:01:10;;;;;;;11.75;10.93;;;12.00;99.90;;;;;;4991882;28;20050;-60
2023/06/08 04:03:36;;;;;;;13.23;12.23;;;12.00;99.90;;;;;;4995252;28;20494;-59
2023/06/08 04:06:03;;;;;;;12.65;11.63;;;12.10;99.90;;;;;;4994626;28;20077;-59
2023/06/08 04:08:31;;;;;;;12.85;11.70;;;12.10;99.90;;;;;;4998281;28;20076;-57
2023/06/08 04:10:58;;;;;;;13.25;12.20;;;12.10;99.90;;;;;;4999728;28;20038;-58
2023/06/08 04:13:25;;;;;;;13.15;11.75;;;12.20;99.90;;;;;;5000629;28;20069;-59
2023/06/08 04:15:51;;;;;;;12.10;11.30;;;12.20;99.90;;;;;;4998558;28;20460;-57
2023/06/08 04:18:16;;;;;;;12.40;11.50;;;12.20;99.90;;;;;;5002654;28;20058;-57
2023/06/08 04:20:42;;;;;;;12.45;11.55;;;12.30;99.90;;;;;;4999599;28;20077;-58
2023/06/08 04:23:10;;;;;;;12.07;11.18;;;12.30;99.90;;;;;;4999693;28;20727;-57
2023/06/08 04:25:36;;;;;;;12.18;11.38;;;12.30;99.90;;;;;;5001283;28;20022;-57
2023/06/08 04:28:02;;;;;;;13.32;12.32;;;12.40;99.90;;;;;;4994308;28;20105;-57
2023/06/08 04:30:28;;;;;;;12.77;11.88;;;12.40;99.90;;;;;;5001240;28;20058;-57
2023/06/08 04:32:55;;;;;;;13.30;12.23;;;12.50;99.90;;;;;;4999889;28;20061;-58
2023/06/08 04:35:21;;;;;;;13.02;12.02;;;12.50;99.90;;;;;;5001256;28;20052;-58
2023/06/08 04:37:47;;;;;;;13.15;11.98;;;12.60;99.90;;;;;;4996849;28;20054;-59
2023/06/08 04:40:13;;;;;;;13.60;12.50;;;12.70;99.90;;;;;;5002442;28;20566;-58
2023/06/08 04:42:40;;;;;;;13.13;12.20;;;12.80;99.90;;;;;;4999632;28;20030;-58
2023/06/08 04:45:08;;;;;;;12.52;11.63;;;12.90;99.90;;;;;;5002674;28;20073;-57
2023/06/08 04:47:37;;;;;;;13.07;11.98;;;13.00;99.90;;;;;;4999432;28;20072;-58
2023/06/08 04:50:07;;;;;;;14.57;13.23;;;13.20;99.90;;;;;;5000923;28;20049;-57
2023/06/08 04:52:40;;;;;;;14.57;13.43;;;13.20;99.90;;;;;;4998409;28;20049;-58
2023/06/08 04:55:08;;;;;;;13.60;12.50;;;13.30;99.90;;;;;;4996606;28;20080;-58
2023/06/08 04:57:34;;;;;;;12.63;11.63;;;13.40;99.90;;;;;;4998762;28;20498;-57
2023/06/08 05:00:00;;;;;;;14.63;13.18;;;13.50;99.90;;;;;;5000010;28;20034;-58
2023/06/08 05:02:26;;;;;;;14.57;13.20;;;13.50;99.90;;;;;;5004340;28;20057;-58
2023/06/08 05:04:51;;;;;;;14.25;13.10;;;13.60;99.90;;;;;;4998484;28;20185;-58
2023/06/08 05:07:17;;;;;;;13.90;12.88;;;13.70;99.90;;;;;;5000235;28;20399;-58
2023/06/08 05:09:42;;;;;;;13.77;12.77;;;13.60;99.90;;;;;;4998234;28;20802;-60
2023/06/08 05:12:08;;;;;;;14.23;13.18;;;13.60;99.90;;;;;;4998122;28;20026;-57
2023/06/08 05:14:34;;;;;;;14.75;13.65;;;13.70;99.90;;;;;;5000349;28;20105;-58
2023/06/08 05:17:00;;;;;;;14.35;13.35;;;13.70;99.90;;;;;;4998893;28;20610;-57
2023/06/08 05:19:25;;;;;;;15.30;14.10;;;13.80;99.90;;;;;;4996694;28;20038;-57
2023/06/08 05:21:51;;;;;;;14.98;13.63;;;14.00;99.90;;;;;;4999925;28;20026;-59
2023/06/08 05:24:18;;;;;;;15.25;13.95;;;14.10;99.90;;;;;;4997239;28;20482;-58
2023/06/08 05:26:44;;;;;;;15.38;14.00;;;14.30;99.90;;;;;;5002747;28;20038;-57
2023/06/08 05:29:10;;;;;;;14.85;13.63;;;14.40;99.90;;;;;;5000008;28;20032;-56
2023/06/08 05:31:38;;;;;;;17.50;14.77;;;14.60;99.90;;;;;;5000973;28;20636;-57
2023/06/08 05:34:03;;;;;;;15.18;13.98;;;14.70;99.90;;;;;;5002967;28;20042;-59
2023/06/08 05:36:29;;;;;;;15.02;13.82;;;14.90;99.90;;;;;;5002029;28;20030;-59
2023/06/08 05:38:54;;;;;;;14.43;13.43;;;15.00;99.90;;;;;;5000115;28;20058;-57
2023/06/08 05:41:21;;;;;;;15.38;14.13;;;15.20;99.90;;;;;;5000240;28;20023;-59
2023/06/08 05:43:47;;;;;;;15.32;14.15;;;15.30;99.90;;;;;;5005150;28;20058;-58
2023/06/08 05:46:14;;;;;;;12.98;12.07;;;15.40;99.90;;;;;;4999441;28;20061;-59
2023/06/08 05:48:40;;;;;;;14.48;13.32;;;15.60;99.90;;;;;;4999799;28;20041;-59
2023/06/08 05:51:06;;;;;;;13.38;12.48;;;15.70;99.90;;;;;;5002138;28;20025;-58
2023/06/08 05:53:31;;;;;;;14.82;13.50;;;15.90;99.90;;;;;;5000880;28;20144;-58
2023/06/08 05:55:57;;;;;;;14.15;13.23;;;16.00;99.90;;;;;;5001608;28;20416;-59
2023/06/08 05:58:24;;;;;;;12.75;11.85;;;16.20;99.90;;;;;;5001209;28;20470;-56
2023/06/08 06:00:51;;;;;;;12.75;11.63;;;16.40;99.90;;;;;;5002526;28;20030;-58
2023/06/08 06:03:17;;;;;;;13.88;12.77;;;16.50;99.90;;;;;;4999828;28;20068;-59
2023/06/08 06:05:42;;;;;;;11.88;11.07;;;16.70;99.90;;;;;;5002285;28;20029;-58
2023/06/08 06:08:08;;;;;;;12.70;11.77;;;16.90;99.90;;;;;;4999503;28;20113;-58
2023/06/08 06:10:33;;;;;;;12.32;11.32;;;17.00;99.90;;;;;;4998643;28;20030;-58
2023/06/08 06:12:59;;;;;;;11.82;10.93;;;17.20;99.90;;;;;;5000765;28;20030;-59
2023/06/08 06:15:25;;;;;;;10.32;9.38;;;17.40;99.90;;;;;;5000260;28;20865;-63
2023/06/08 06:17:51;;;;;;;9.60;8.75;;;17.60;99.90;;;;;;4999217;28;20022;-57
2023/06/08 06:20:16;;;;;;;9.40;8.60;;;17.80;99.90;;;;;;5001843;28;20506;-58
2023/06/08 06:22:42;;;;;;;9.10;8.30;;;18.00;99.90;;;;;;5000004;28;20033;-58
2023/06/08 06:25:08;;;;;;;10.50;7.93;;;18.20;99.90;;;;;;4994771;28;20553;-57
2023/06/08 06:27:34;;;;;;;8.23;7.53;;;18.40;99.90;;;;;;4998536;28;20041;-58
2023/06/08 06:30:00;;;;;;;8.85;7.95;;;18.50;99.90;;;;;;4994672;28;20022;-59
2023/06/08 06:32:25;;;;;;;8.82;7.65;;;18.60;99.90;;;;;;4996493;28;20029;-58
2023/06/08 06:34:51;;;;;;;8.73;7.75;;;18.70;99.90;;;;;;4998416;28;20034;-58
2023/06/08 06:37:17;;;;;;;11.32;7.78;;;18.70;99.90;;;;;;4997494;28;20394;-58
2023/06/08 06:39:43;;;;;;;8.32;7.53;;;18.80;99.90;;;;;;4999535;28;20078;-59
2023/06/08 06:42:10;;;;;;;8.07;7.38;;;18.90;99.90;;;;;;4998315;28;20078;-58
2023/06/08 06:44:35;;;;;;;8.52;7.93;;;19.00;99.90;;;;;;4997799;28;20478;-58
2023/06/08 06:47:01;;;;;;;7.93;7.28;;;19.10;99.90;;;;;;4995688;28;20038;-57
2023/06/08 06:49:26;;;;;;;7.60;7.00;;;19.10;99.90;;;;;;4994767;28;20038;-58
2023/06/08 06:51:52;;;;;;;7.57;6.97;;;19.20;99.90;;;;;;4998103;28;20049;-59
2023/06/08 06:54:18;;;;;;;8.00;7.30;;;19.40;99.90;;;;;;5001240;28;20389;-57
2023/06/08 06:56:43;;;;;;;7.97;7.28;;;19.40;99.90;;;;;;4999095;28;20022;-57
2023/06/08 06:59:09;;;;;;;7.40;6.80;;;19.50;99.90;;;;;;5001882;28;20773;-58
2023/06/08 07:01:35;;;;;;;7.88;7.28;;;19.60;99.90;;;;;;4997293;28;20122;-58
2023/06/08 07:04:04;;;;;;;7.68;7.05;;;19.70;99.90;;;;;;4999645;28;20042;-57
2023/06/08 07:06:30;;;;;;;8.77;7.93;;;19.70;99.90;;;;;;4998393;28;20029;-58
2023/06/08 07:08:56;;;;;;;7.32;6.63;;;19.80;99.90;;;;;;4999053;28;20031;-59
2023/06/08 07:11:22;;;;;;;7.60;7.00;;;19.90;99.90;;;;;;4997652;28;20018;-59
2023/06/08 07:13:47;;;;;;;8.02;7.22;;;20.00;99.90;;;;;;4994685;28;20044;-59
2023/06/08 07:16:13;;;;;;;7.07;6.43;;;20.10;99.90;;;;;;4992484;28;20038;-58
2023/06/08 07:18:39;;;;;;;7.32;6.75;;;20.20;99.90;;;;;;4997006;28;20042;-58
2023/06/08 07:21:05;;;;;;;9.05;7.15;;;20.30;99.90;;;;;;4996069;28;20035;-58
2023/06/08 07:23:31;;;;;;;8.13;6.85;;;20.40;99.90;;;;;;4996972;28;20072;-59
2023/06/08 07:25:56;;;;;;;7.10;6.43;;;20.40;99.90;;;;;;4996826;28;20039;-59
2023/06/08 07:28:22;;;;;;;7.63;7.03;;;20.50;99.90;;;;;;4996486;28;20030;-59
2023/06/08 07:30:47;;;;;;;7.00;6.30;;;20.60;99.90;;;;;;4995054;28;20114;-59
2023/06/08 07:33:13;;;;;;;7.07;6.38;;;20.60;99.90;;;;;;5003060;28;20435;-57
2023/06/08 07:35:39;;;;;;;7.55;6.75;;;20.70;99.90;;;;;;4997331;28;20026;-60
2023/06/08 07:38:06;;;;;;;7.43;6.80;;;20.80;99.90;;;;;;4995318;28;20030;-58
2023/06/08 07:40:31;;;;;;;6.90;6.40;;;20.90;99.90;;;;;;4996762;28;20030;-58
2023/06/08 07:42:57;;;;;;;6.90;6.40;;;21.00;99.90;;;;;;4997691;28;20113;-58
2023/06/08 07:45:23;;;;;;;7.35;6.75;;;21.10;99.90;;;;;;4996077;28;20034;-58
2023/06/08 07:47:48;;;;;;;9.80;6.10;;;21.10;99.90;;;;;;4993557;28;20026;-58
2023/06/08 07:50:14;;;;;;;7.90;7.20;;;21.10;99.90;;;;;;4994684;28;20049;-59
2023/06/08 07:52:40;;;;;;;7.78;6.72;;;21.20;99.90;;;;;;4995660;28;20821;-57
2023/06/08 07:55:06;;;;;;;7.55;6.93;;;21.40;99.90;;;;;;4996620;28;20088;-57
2023/06/08 07:57:31;;;;;;;6.38;5.97;;;21.60;99.90;;;;;;4995700;28;20448;-59
2023/06/08 07:59:57;;;;;;;7.03;6.45;;;21.70;99.90;;;;;;5001331;28;20121;-57
2023/06/08 08:02:23;;;;;;;6.03;5.53;;;21.80;99.90;;;;;;4998888;28;20017;-59
2023/06/08 08:04:49;;;;;;;6.78;6.18;;;21.90;99.90;;;;;;4997406;28;20081;-58
2023/06/08 08:07:15;;;;;;;5.80;5.30;;;22.00;99.90;;;;;;5001405;28;20030;-59
2023/06/08 08:09:43;;;;;;;6.53;5.93;;;22.20;99.90;;;;;;4993896;28;20115;-59
2023/06/08 08:12:10;;;;;;;6.82;5.63;;;22.40;99.90;;;;;;4995565;28;20080;-59
2023/06/08 08:14:37;;;;;;;6.63;6.10;;;22.60;99.90;;;;;;4998711;28;20042;-59
2023/06/08 08:17:03;;;;;;;5.78;5.25;;;22.70;99.90;;;;;;4996662;28;20061;-58
2023/06/08 08:19:30;;;;;;;5.85;5.32;;;22.80;99.90;;;;;;4996568;28;20034;-57
2023/06/08 08:21:55;;;;;;;6.15;5.65;;;22.90;99.90;;;;;;4995823;28;20545;-59
2023/06/08 08:24:21;;;;;;;6.10;5.60;;;22.90;99.90;;;;;;4995940;28;20089;-59
2023/06/08 08:26:47;;;;;;;5.95;5.45;;;23.00;99.90;;;;;;4995369;28;20034;-59
2023/06/08 08:29:12;;;;;;;5.50;5.07;;;23.10;99.90;;;;;;4996573;28;20027;-59
2023/06/08 08:31:38;;;;;;;5.97;5.50;;;23.20;99.90;;;;;;4995579;28;20483;-58
2023/06/08 08:34:04;;;;;;;6.70;5.60;;;23.20;99.90;;;;;;4999708;28;20057;-59
2023/06/08 08:36:30;;;;;;;6.30;5.80;;;23.30;99.90;;;;;;4994755;28;20022;-59
2023/06/08 08:38:56;;;;;;;6.75;5.35;;;23.30;99.90;;;;;;4997241;28;20553;-59
2023/06/08 08:41:26;;;;;;;6.57;4.95;;;23.40;99.90;;;;;;4996993;28;20019;-59
2023/06/08 08:44:07;;;;;;;5.53;5.07;;;23.70;99.90;;;;;;4994872;28;20041;-59
2023/06/08 08:46:39;;;;;;;4.88;4.45;;;23.90;99.90;;;;;;4996074;28;20125;-58
2023/06/08 08:49:15;;;;;;;5.22;4.72;;;24.20;99.90;;;;;;4995659;28;20438;-59
2023/06/08 08:51:52;;;;;;;7.10;5.15;;;24.30;98.50;;;;;;4998693;28;20104;-58
2023/06/08 08:54:25;;;;;;;5.20;4.60;;;24.40;98.10;;;;;;4996273;28;20041;-59
2023/06/08 08:56:55;;;;;;;4.88;4.47;;;24.50;96.80;;;;;;4998729;28;20026;-59
2023/06/08 08:59:23;;;;;;;4.78;4.38;;;24.60;96.40;;;;;;5001312;28;20382;-59
2023/06/08 09:01:48;;;;;;;4.88;4.47;;;24.90;96.10;;;;;;4999815;28;20041;-58
2023/06/08 09:04:14;;;;;;;4.68;4.28;;;25.10;93.40;;;;;;5000850;28;20776;-59
2023/06/08 09:06:47;;;;;;;5.47;4.47;;;25.10;92.60;;;;;;4997335;28;20474;-59
2023/06/08 09:09:13;;;;;;;5.70;4.40;;;25.20;91.60;;;;;;5003013;28;20046;-59
2023/06/08 09:12:01;;;;;;;4.63;4.28;;;25.10;91.40;;;;;;4993002;28;20046;-57
2023/06/08 09:14:27;;;;;;;4.93;4.53;;;25.10;91.30;;;;;;4996822;28;20037;-58
2023/06/08 09:16:54;;;;;;;5.30;4.90;;;25.10;92.00;;;;;;5000531;28;20133;-59
2023/06/08 09:19:22;;;;;;;4.63;4.30;;;25.00;90.70;;;;;;4996427;28;20045;-58
2023/06/08 09:21:48;;;;;;;4.68;4.30;;;25.10;92.00;;;;;;4998530;28;20061;-59
2023/06/08 09:24:16;;;;;;;4.18;3.78;;;25.10;90.60;;;;;;4998431;28;20743;-58
2023/06/08 09:26:55;;;;;;;4.63;4.15;;;24.90;88.70;;;;;;4997123;28;20454;-58
2023/06/08 09:29:43;;;;;;;5.93;4.60;;;24.70;91.00;;;;;;4997719;28;20058;-58
2023/06/08 09:32:13;;;;;;;8.15;4.85;;;24.50;90.20;;;;;;4997505;28;20548;-59
2023/06/08 09:34:53;;;;;;;6.35;4.50;;;24.40;90.90;;;;;;4998129;28;20027;-58
2023/06/08 09:37:24;;;;;;;5.00;4.60;;;24.10;92.80;;;;;;4997656;28;20044;-59
2023/06/08 09:39:50;;;;;;;7.47;4.88;;;24.00;94.80;;;;;;4997032;28;20093;-57
2023/06/08 09:42:15;;;;;;;8.05;5.10;;;23.80;94.70;;;;;;4993818;28;20036;-58
2023/06/08 09:44:41;;;;;;;5.10;4.70;;;23.80;94.20;;;;;;5000513;28;20109;-59
2023/06/08 09:47:26;;;;;;;4.72;4.28;;;23.70;94.00;;;;;;4995081;28;20030;-59
2023/06/08 09:49:53;;;;;;;4.97;4.57;;;23.70;93.80;;;;;;4999478;28;20121;-59
2023/06/08 09:52:23;;;;;;;5.25;4.82;;;23.80;94.90;;;;;;4999343;28;20045;-59
2023/06/08 09:54:49;;;;;;;5.30;4.80;;;23.80;92.90;;;;;;4997175;28;20026;-59
2023/06/08 09:57:16;;;;;;;5.57;5.07;;;23.80;94.60;;;;;;4996960;28;20033;-59
2023/06/08 09:59:50;;;;;;;5.18;4.78;;;23.80;97.50;;;;;;5002314;28;20093;-58
2023/06/08 10:02:38;;;;;;;5.45;4.93;;;23.60;98.30;;;;;;4997282;28;20030;-59
2023/06/08 10:05:13;;;;;;;5.45;5.05;;;23.50;99.90;;;;;;4999874;28;20686;-59
2023/06/08 10:07:43;;;;;;;5.22;4.70;;;23.50;96.70;;;;;;4998483;28;20040;-58
2023/06/08 10:10:21;;;;;;;5.72;5.22;;;23.50;96.50;;;;;;4997930;28;20449;-58
2023/06/08 10:12:47;;;;;;;4.85;4.55;;;23.70;96.90;;;;;;4999853;28;20046;-58
2023/06/08 10:15:14;;;;;;;6.10;4.68;;;23.80;94.70;;;;;;5000453;28;20022;-59
2023/06/08 10:17:40;;;;;;;4.93;4.53;;;24.00;96.40;;;;;;4999992;28;20018;-59
2023/06/08 10:20:06;;;;;;;4.55;4.15;;;24.00;98.20;;;;;;4998656;28;20067;-58
2023/06/08 10:22:33;;;;;;;5.20;4.80;;;24.20;95.80;;;;;;4996867;28;20069;-59
2023/06/08 10:24:59;;;;;;;4.55;4.15;;;24.40;95.30;;;;;;4998910;28;20092;-59
2023/06/08 10:27:25;;;;;;;6.25;5.35;;;24.50;95.10;;;;;;4997780;28;20506;-63
2023/06/08 10:30:00;;;;;;;5.10;4.70;;;24.40;94.00;;;;;;4998146;28;20022;-58
2023/06/08 10:32:31;;;;;;;5.90;4.40;;;24.20;94.20;;;;;;4998202;28;20038;-57
2023/06/08 10:35:00;;;;;;;5.05;4.65;;;24.10;93.40;;;;;;4996795;28;20045;-60
2023/06/08 10:37:30;;;;;;;4.78;4.32;;;23.90;96.70;;;;;;4992812;28;20427;-59
2023/06/08 10:40:06;;;;;;;5.00;4.60;;;23.80;97.10;;;;;;4997367;28;20076;-59
2023/06/08 10:42:32;;;;;;;6.25;4.78;;;23.70;99.50;;;;;;4997563;28;20054;-59
2023/06/08 10:44:58;;;;;;;6.20;4.30;;;23.50;99.50;;;;;;4999577;28;20026;-59
2023/06/08 10:47:25;;;;;;;5.18;4.68;;;23.40;99.90;;;;;;4997572;28;20045;-59
2023/06/08 10:50:03;;;;;;;6.90;4.85;;;23.40;97.30;;;;;;4995424;28;20034;-59
2023/06/08 10:52:44;;;;;;;6.97;5.05;;;23.50;96.90;;;;;;4998946;28;20065;-58
2023/06/08 10:55:13;;;;;;;;;;;23.50;97.90;;;;;;4997628;28;20034;-58
2023/06/08 10:57:49;;;;;;;6.32;4.43;;;23.50;97.90;;;;;;4996966;28;19913;-59
2023/06/08 11:00:24;;;;;;;5.82;5.35;;;23.50;96.80;;;;;;4998648;28;20132;-58
2023/06/08 11:02:51;;;;;;;5.28;4.88;;;23.30;98.00;;;;;;5000810;28;20028;-58
2023/06/08 11:05:17;;;;;;;6.40;5.80;;;23.20;98.80;;;;;;4996740;28;20386;-60
2023/06/08 11:07:43;;;;;;;6.10;5.68;;;23.10;99.90;;;;;;4997289;28;20026;-58
2023/06/08 11:10:09;;;;;;;11.05;6.97;;;22.80;99.90;;;;;;4996908;28;20029;-59
2023/06/08 11:12:35;;;;;;;6.63;6.03;;;22.30;99.90;;;;;;4997937;28;20600;-59
2023/06/08 11:15:00;;;;;;;13.15;6.18;;;21.90;99.90;;;;;;4997070;28;20026;-63
2023/06/08 11:17:27;;;;;;;19.17;9.43;;;21.60;99.90;;;;;;4996498;28;20030;-58
2023/06/08 11:19:52;;;;;;;14.05;8.10;;;21.10;99.90;;;;;;4999321;28;20049;-59
2023/06/08 11:22:18;;;;;;;13.23;6.95;;;20.40;99.90;;;;;;4995013;28;20724;-59
2023/06/08 11:24:44;;;;;;;46.72;7.40;;;19.60;99.90;;;;;;4995480;28;20515;-58
2023/06/08 11:27:17;;;;;;;45.08;10.77;;;18.70;99.90;;;;;;4996064;28;20080;-59
2023/06/08 11:29:46;;;;;;;20.30;8.13;;;18.00;99.90;;;;;;4996090;28;20087;-59
2023/06/08 11:32:15;;;;;;;14.45;8.25;;;17.50;99.90;;;;;;4994966;28;20562;-58
2023/06/08 11:34:45;;;;;;;12.60;11.27;;;17.20;99.90;;;;;;4995642;28;20454;-60
2023/06/08 11:37:20;;;;;;;20.00;13.13;;;17.00;99.90;;;;;;4998007;28;20054;-58
2023/06/08 11:39:47;;;;;;;34.45;17.65;;;16.80;99.90;;;;;;5000861;28;20030;-58
2023/06/08 11:42:13;;;;;;;26.48;18.35;;;16.80;99.90;;;;;;4997469;28;20040;-58
2023/06/08 11:44:39;;;;;;;20.65;17.20;;;16.80;99.90;;;;;;4998875;28;20022;-58
2023/06/08 11:47:08;;;;;;;21.10;18.98;;;16.70;99.90;;;;;;4999419;28;20038;-59
2023/06/08 11:49:53;;;;;;;21.58;18.15;;;16.70;99.90;;;;;;4995096;28;20121;-59
2023/06/08 11:52:22;;;;;;;285.83;46.05;;;16.70;99.90;;;;;;4995894;28;20043;-58
2023/06/08 11:54:55;;;;;;;37.38;26.20;;;16.70;99.90;;;;;;4996289;28;20037;-59
2023/06/08 11:57:21;;;;;;;32.92;29.63;;;16.80;99.90;;;;;;4995340;28;20030;-58
2023/06/08 11:59:49;;;;;;;32.42;29.00;;;17.00;99.90;;;;;;4996454;28;20029;-59
2023/06/08 12:02:19;;;;;;;33.25;26.17;;;17.10;99.90;;;;;;4995348;28;20038;-59
2023/06/08 12:04:46;;;;;;;26.57;23.73;;;17.30;99.90;;;;;;4996940;28;20125;-64
2023/06/08 12:07:15;;;;;;;35.10;25.23;;;17.50;99.90;;;;;;4996613;28;20777;-59
2023/06/08 12:09:48;;;;;;;27.42;22.77;;;17.60;99.90;;;;;;5001840;28;20026;-59
2023/06/08 12:12:14;;;;;;;33.78;26.15;;;17.70;99.90;;;;;;4997834;28;20053;-59
2023/06/08 12:14:46;;;;;;;27.30;24.70;;;17.90;99.90;;;;;;4992933;28;20076;-59
2023/06/08 12:17:15;;;;;;;28.23;25.25;;;18.10;99.90;;;;;;4994460;28;20050;-59
2023/06/08 12:19:45;;;;;;;39.47;31.77;;;18.40;99.90;;;;;;4995330;28;20023;-58
2023/06/08 12:22:13;;;;;;;37.85;30.02;;;18.80;99.90;;;;;;4996851;28;20561;-59
2023/06/08 12:24:39;;;;;;;28.75;25.92;;;19.20;99.90;;;;;;4995298;28;20031;-59
2023/06/08 12:27:09;;;;;;;31.10;23.02;;;19.50;99.90;;;;;;4995097;28;20414;-59
2023/06/08 12:29:36;;;;;;;25.15;22.67;;;19.70;99.90;;;;;;4995911;28;20394;-57
2023/06/08 12:32:05;;;;;;;19.85;18.25;;;19.80;99.90;;;;;;4996566;28;20026;-60
2023/06/08 12:34:32;;;;;;;19.38;16.60;;;19.90;99.90;;;;;;5000536;28;20060;-59
2023/06/08 12:36:57;;;;;;;19.00;17.40;;;19.80;99.90;;;;;;5000974;28;20117;-59
2023/06/08 12:39:23;;;;;;;17.52;15.93;;;19.90;99.90;;;;;;5002617;28;20220;-59
2023/06/08 12:41:49;;;;;;;17.88;16.10;;;20.00;99.90;;;;;;5000004;28;20383;-60